Time;durP1;ratioP1;P1;durP2;ratioP2;P2;SDS_P1;SDS_P2;PMS_P1;PMS_P2;Temp;Humidity;BMP_temperature;BMP_pressure;BME280_temperature;BME280_humidity;BME280_pressure;Samples;Min_cycle;Max_cycle;Signal;HPM_P1;HPM_P2
2023/10/30 00:00:08;;;;;;;4.55;1.50;;;31.80;1.00;;;;;;5012090;28;20552;-73
2023/10/30 00:03:11;;;;;;;4.67;1.27;;;32.40;1.00;;;;;;5009862;28;20292;-72
2023/10/30 00:05:38;;;;;;;5.10;1.60;;;32.30;1.00;;;;;;4992591;28;20194;-71
2023/10/30 00:08:06;;;;;;;2.67;1.40;;;32.30;1.00;;;;;;5011837;28;20216;-74
2023/10/30 00:10:36;;;;;;;3.53;1.65;;;32.60;1.00;;;;;;5012359;28;20260;-72
2023/10/30 00:13:03;;;;;;;8.68;1.85;;;32.70;1.00;;;;;;5012540;28;20698;-75
2023/10/30 00:15:31;;;;;;;3.25;1.55;;;33.20;1.00;;;;;;5011769;28;20181;-73
2023/10/30 00:17:58;;;;;;;4.25;1.38;;;33.40;1.00;;;;;;5012681;28;20212;-71
2023/10/30 00:20:25;;;;;;;6.18;1.48;;;33.10;1.00;;;;;;5016481;28;20186;-72
2023/10/30 00:22:52;;;;;;;4.57;1.73;;;32.70;1.00;;;;;;5014641;28;20550;-74
2023/10/30 00:25:21;;;;;;;7.65;1.83;;;33.00;1.00;;;;;;5016278;28;20299;-74
2023/10/30 00:27:48;;;;;;;4.75;1.77;;;32.90;1.00;;;;;;5015849;28;20675;-72
2023/10/30 00:30:16;;;;;;;3.92;1.38;;;32.80;1.00;;;;;;5013919;28;20200;-69
2023/10/30 00:32:43;;;;;;;3.78;1.77;;;32.90;1.00;;;;;;5027639;28;20252;-75
2023/10/30 00:35:10;;;;;;;5.72;1.73;;;33.10;1.00;;;;;;5036046;28;20264;-71
2023/10/30 00:37:37;;;;;;;4.78;1.95;;;32.70;1.00;;;;;;5016958;28;20170;-71
2023/10/30 00:40:06;;;;;;;7.10;2.10;;;32.10;1.00;;;;;;5015841;28;20276;-73
2023/10/30 00:42:33;;;;;;;4.45;1.58;;;32.40;1.00;;;;;;5016026;28;20217;-72
2023/10/30 00:45:04;;;;;;;6.22;2.35;;;33.10;1.00;;;;;;5015169;28;20260;-72
2023/10/30 00:47:32;;;;;;;3.88;1.50;;;33.60;1.00;;;;;;5016101;28;20221;-73
2023/10/30 00:49:59;;;;;;;4.80;1.42;;;33.70;1.00;;;;;;4998494;28;20265;-71
2023/10/30 00:52:27;;;;;;;8.73;1.70;;;33.70;1.00;;;;;;5015211;28;20841;-73
2023/10/30 00:54:54;;;;;;;5.97;1.70;;;34.00;1.00;;;;;;5016060;28;20178;-70
2023/10/30 00:57:22;;;;;;;9.13;1.40;;;34.20;1.00;;;;;;5015639;28;20186;-72
2023/10/30 00:59:49;;;;;;;10.40;1.80;;;34.40;1.00;;;;;;5014793;28;20555;-74
2023/10/30 01:05:39;;;;;;;6.55;1.48;;;34.90;1.00;;;;;;5015368;28;20691;-74
2023/10/30 01:08:08;;;;;;;4.75;1.60;;;35.20;1.00;;;;;;5015006;28;20648;-72
2023/10/30 01:10:37;;;;;;;4.57;1.40;;;34.80;1.00;;;;;;5015291;28;20197;-71
2023/10/30 01:13:04;;;;;;;3.65;1.75;;;35.10;1.00;;;;;;5015215;28;20609;-71
2023/10/30 01:15:31;;;;;;;3.55;1.50;;;34.80;1.00;;;;;;5015023;28;20232;-76
2023/10/30 01:17:58;;;;;;;1.75;1.45;;;35.00;1.00;;;;;;5015300;28;20205;-74
2023/10/30 01:20:26;;;;;;;4.32;1.60;;;35.20;1.00;;;;;;5015097;28;20232;-72
2023/10/30 01:22:53;;;;;;;2.50;1.45;;;35.00;1.00;;;;;;5014771;28;20188;-74
2023/10/30 01:25:20;;;;;;;3.10;1.55;;;34.90;1.00;;;;;;5015073;28;20214;-73
2023/10/30 01:27:47;;;;;;;2.00;1.45;;;34.90;1.00;;;;;;5015251;28;20180;-74
2023/10/30 01:30:15;;;;;;;5.93;1.60;;;35.20;1.00;;;;;;5013771;28;20191;-73
2023/10/30 01:32:42;;;;;;;3.78;1.85;;;35.40;1.00;;;;;;5014936;28;20404;-70
2023/10/30 01:35:09;;;;;;;5.13;1.63;;;35.20;1.00;;;;;;5014953;28;20186;-71
2023/10/30 01:37:37;;;;;;;4.07;1.42;;;35.10;1.00;;;;;;5014367;28;20174;-71
2023/10/30 01:40:05;;;;;;;9.45;1.67;;;35.20;1.00;;;;;;5014506;28;20255;-71
2023/10/30 01:42:32;;;;;;;4.28;1.30;;;35.80;1.00;;;;;;5014275;28;20185;-72
2023/10/30 01:45:00;;;;;;;2.47;1.40;;;35.70;1.00;;;;;;5014236;28;20210;-71
2023/10/30 01:47:28;;;;;;;5.80;1.50;;;35.90;1.00;;;;;;5014456;28;20174;-73
2023/10/30 01:49:59;;;;;;;6.25;1.40;;;35.90;1.00;;;;;;5014319;28;20228;-70
2023/10/30 01:55:50;;;;;;;3.13;1.35;;;36.00;1.00;;;;;;5014604;28;20193;-71
2023/10/30 01:58:18;;;;;;;3.50;1.40;;;36.40;1.00;;;;;;5029842;28;20197;-71
2023/10/30 02:00:46;;;;;;;2.38;1.42;;;36.50;1.00;;;;;;5035304;28;20657;-71
2023/10/30 02:03:14;;;;;;;4.53;1.92;;;36.20;1.00;;;;;;5035621;28;20192;-71
2023/10/30 02:05:41;;;;;;;4.90;1.95;;;36.20;1.00;;;;;;5035308;28;20185;-71
2023/10/30 02:08:10;;;;;;;3.30;1.50;;;36.10;1.00;;;;;;5035449;28;20175;-71
2023/10/30 02:10:37;;;;;;;6.97;1.63;;;36.30;1.00;;;;;;5035103;28;20169;-70
2023/10/30 02:13:07;;;;;;;2.25;1.45;;;36.30;1.00;;;;;;5034942;28;20212;-70
2023/10/30 02:15:35;;;;;;;3.78;1.30;;;36.80;1.00;;;;;;5034825;28;20200;-70
2023/10/30 02:18:03;;;;;;;5.53;1.60;;;37.40;1.00;;;;;;5035015;28;20180;-70
2023/10/30 02:20:30;;;;;;;3.60;1.50;;;37.70;1.00;;;;;;5035098;28;20173;-70
2023/10/30 02:22:58;;;;;;;1.38;1.27;;;37.70;1.00;;;;;;5035128;28;20216;-70
2023/10/30 02:25:26;;;;;;;8.15;1.77;;;37.10;1.00;;;;;;5034898;28;20304;-71
2023/10/30 02:27:54;;;;;;;3.20;1.60;;;37.00;1.00;;;;;;5034883;28;20235;-71
2023/10/30 02:30:21;;;;;;;1.58;1.33;;;36.60;1.00;;;;;;5034754;28;20275;-72
2023/10/30 02:32:50;;;;;;;2.65;1.77;;;37.00;1.00;;;;;;5034794;28;20219;-71
2023/10/30 02:35:18;;;;;;;5.40;1.85;;;37.00;1.00;;;;;;5033629;28;20650;-70
2023/10/30 02:37:46;;;;;;;2.25;1.48;;;37.30;1.00;;;;;;5034813;28;20231;-70
2023/10/30 02:40:14;;;;;;;2.25;1.70;;;37.50;1.00;;;;;;5033998;28;20547;-71
2023/10/30 02:46:05;;;;;;;3.97;1.77;;;35.70;1.00;;;;;;5034142;28;20542;-71
2023/10/30 02:48:33;;;;;;;2.80;1.90;;;35.00;1.00;;;;;;5034336;28;20264;-71
2023/10/30 02:51:00;;;;;;;3.70;1.67;;;34.50;1.00;;;;;;5034357;28;20225;-71
2023/10/30 02:53:30;;;;;;;4.53;1.75;;;34.10;1.00;;;;;;5034287;28;20217;-72
2023/10/30 02:55:59;;;;;;;2.95;1.50;;;34.70;1.00;;;;;;5034366;28;20259;-72
2023/10/30 02:58:26;;;;;;;8.52;1.73;;;35.40;1.00;;;;;;5034693;28;20537;-71
2023/10/30 03:00:55;;;;;;;4.07;1.85;;;36.00;1.00;;;;;;5034126;28;20232;-71
2023/10/30 03:03:22;;;;;;;5.10;1.60;;;35.80;1.00;;;;;;5034042;28;20227;-71
2023/10/30 03:05:50;;;;;;;3.92;1.48;;;35.90;1.00;;;;;;5034113;28;20191;-71
2023/10/30 03:08:17;;;;;;;6.85;1.60;;;35.90;1.00;;;;;;5034134;28;20169;-71
2023/10/30 03:10:46;;;;;;;5.13;1.80;;;35.60;1.00;;;;;;5034159;28;20174;-71
2023/10/30 03:13:14;;;;;;;4.97;1.98;;;35.90;1.00;;;;;;5033836;28;20174;-71
2023/10/30 03:15:47;;;;;;;1.95;1.50;;;36.10;1.00;;;;;;5033928;28;20269;-71
2023/10/30 03:18:14;;;;;;;3.00;1.70;;;35.60;1.00;;;;;;5033887;28;20545;-70
2023/10/30 03:20:42;;;;;;;3.47;1.83;;;35.60;1.00;;;;;;5033723;28;20173;-70
2023/10/30 03:23:09;;;;;;;3.72;1.58;;;35.80;1.00;;;;;;5033880;28;20196;-71
2023/10/30 03:25:36;;;;;;;4.45;1.67;;;35.30;1.00;;;;;;5033401;28;20685;-70
2023/10/30 03:28:04;;;;;;;3.00;1.77;;;34.80;1.00;;;;;;5033658;28;20174;-71
2023/10/30 03:30:33;;;;;;;2.28;1.48;;;35.00;1.00;;;;;;5033623;28;20242;-72
2023/10/30 03:33:01;;;;;;;2.55;1.42;;;34.50;1.00;;;;;;5033617;28;20170;-71
2023/10/30 03:35:28;;;;;;;2.50;1.40;;;34.30;1.00;;;;;;5033854;28;20181;-72
2023/10/30 03:37:55;;;;;;;4.53;1.60;;;34.10;1.00;;;;;;5033829;28;20268;-72
2023/10/30 03:40:23;;;;;;;3.97;1.65;;;34.10;1.00;;;;;;5033519;28;20169;-71
2023/10/30 03:42:50;;;;;;;2.47;1.52;;;34.10;1.00;;;;;;5033497;28;20173;-72
2023/10/30 03:45:17;;;;;;;4.97;1.90;;;34.00;1.00;;;;;;5034010;28;20232;-72
2023/10/30 03:47:45;;;;;;;3.83;1.65;;;33.80;1.00;;;;;;5033392;28;20173;-72
2023/10/30 03:50:14;;;;;;;6.45;1.73;;;33.80;1.00;;;;;;5033116;28;20237;-72
2023/10/30 03:52:43;;;;;;;2.28;1.70;;;34.00;1.00;;;;;;5033337;28;20181;-73
2023/10/30 03:55:10;;;;;;;3.80;1.77;;;34.00;1.00;;;;;;5033344;28;20173;-71
2023/10/30 03:57:40;;;;;;;3.20;1.92;;;34.00;1.00;;;;;;5033303;28;20181;-72
2023/10/30 04:00:08;;;;;;;5.25;1.70;;;34.20;1.00;;;;;;5033200;28;20676;-72
2023/10/30 04:02:35;;;;;;;7.70;1.65;;;34.10;1.00;;;;;;5033365;28;20673;-72
2023/10/30 04:05:03;;;;;;;9.38;1.77;;;34.00;1.00;;;;;;5032951;28;20212;-71
2023/10/30 04:07:30;;;;;;;3.45;2.13;;;33.80;1.00;;;;;;5033057;28;20177;-71
2023/10/30 04:09:58;;;;;;;2.58;1.60;;;33.60;1.00;;;;;;5033010;28;20642;-72
2023/10/30 04:12:25;;;;;;;3.50;1.90;;;33.50;1.00;;;;;;5033106;28;20184;-72
2023/10/30 04:14:52;;;;;;;5.22;1.70;;;33.70;1.00;;;;;;5033041;28;20177;-73
2023/10/30 04:17:20;;;;;;;4.28;2.10;;;33.80;1.00;;;;;;5033148;28;20184;-73
2023/10/30 04:19:47;;;;;;;5.05;1.70;;;33.90;1.00;;;;;;5033154;28;20177;-72
2023/10/30 04:22:14;;;;;;;4.07;1.90;;;34.40;1.00;;;;;;5032849;28;20173;-73
2023/10/30 04:24:41;;;;;;;2.15;1.85;;;34.50;1.00;;;;;;5032949;28;20213;-73
2023/10/30 04:27:09;;;;;;;4.95;1.70;;;34.60;1.00;;;;;;5032900;28;20258;-72
2023/10/30 04:29:36;;;;;;;3.42;1.73;;;34.60;1.00;;;;;;5032862;28;20768;-72
2023/10/30 04:32:04;;;;;;;4.85;2.05;;;34.30;1.00;;;;;;5033342;28;20200;-73
2023/10/30 04:34:31;;;;;;;4.95;2.03;;;34.10;1.00;;;;;;5033110;28;20674;-73
2023/10/30 04:37:00;;;;;;;4.63;2.30;;;34.00;1.00;;;;;;5033278;28;20182;-73
2023/10/30 04:39:27;;;;;;;7.72;2.28;;;33.80;1.00;;;;;;5032831;28;20303;-73
2023/10/30 04:41:55;;;;;;;8.52;2.05;;;33.80;1.00;;;;;;5032872;28;20170;-73
2023/10/30 04:44:23;;;;;;;5.25;2.10;;;33.90;1.00;;;;;;5032979;28;20211;-72
2023/10/30 04:46:50;;;;;;;2.88;2.10;;;34.00;1.00;;;;;;5032918;28;20662;-72
2023/10/30 04:49:17;;;;;;;3.42;2.13;;;34.30;1.00;;;;;;5032816;28;20189;-73
2023/10/30 04:51:45;;;;;;;5.45;1.90;;;34.30;1.00;;;;;;5031287;28;20244;-73
2023/10/30 04:54:12;;;;;;;17.35;2.17;;;34.40;1.00;;;;;;5032835;28;20273;-73
2023/10/30 04:56:39;;;;;;;3.80;2.00;;;34.50;1.00;;;;;;5032551;28;20185;-73
2023/10/30 04:59:07;;;;;;;7.57;2.28;;;35.00;1.00;;;;;;5032983;28;20176;-74
2023/10/30 05:01:34;;;;;;;5.13;1.90;;;34.70;1.00;;;;;;5032498;28;20182;-73
2023/10/30 05:04:02;;;;;;;5.47;2.03;;;34.20;1.00;;;;;;5034031;28;20216;-73
2023/10/30 05:06:30;;;;;;;7.53;2.50;;;33.90;1.00;;;;;;5036458;28;20180;-73
2023/10/30 05:08:57;;;;;;;3.40;1.70;;;33.70;1.00;;;;;;5036469;28;20223;-74
2023/10/30 05:11:24;;;;;;;4.85;1.90;;;33.60;1.00;;;;;;5036287;28;20215;-72
2023/10/30 05:13:52;;;;;;;2.60;1.90;;;33.40;1.00;;;;;;5036237;28;20177;-73
2023/10/30 05:16:19;;;;;;;6.95;2.42;;;33.30;1.00;;;;;;5036312;28;20205;-73
2023/10/30 05:18:46;;;;;;;6.10;1.75;;;33.30;1.00;;;;;;5036288;28;20243;-73
2023/10/30 05:21:13;;;;;;;5.07;2.22;;;33.40;1.00;;;;;;5036148;28;20173;-73
2023/10/30 05:23:41;;;;;;;5.78;2.05;;;33.40;1.00;;;;;;5035963;28;20212;-73
2023/10/30 05:26:08;;;;;;;5.15;2.20;;;33.20;1.00;;;;;;5035733;28;20188;-74
2023/10/30 05:28:36;;;;;;;7.47;2.33;;;33.10;1.00;;;;;;5035994;28;20170;-73
2023/10/30 05:31:06;;;;;;;2.92;1.92;;;33.10;1.00;;;;;;5035886;28;20200;-73
2023/10/30 05:33:34;;;;;;;9.50;2.70;;;33.10;1.00;;;;;;5035882;28;20176;-72
2023/10/30 05:36:04;;;;;;;2.85;1.80;;;32.90;1.00;;;;;;5036067;28;20188;-73
2023/10/30 05:38:32;;;;;;;3.85;2.05;;;32.90;1.00;;;;;;5035930;28;20208;-75
2023/10/30 05:40:59;;;;;;;3.28;2.13;;;32.90;1.00;;;;;;5035754;28;20188;-72
2023/10/30 05:43:28;;;;;;;3.83;1.90;;;32.90;1.00;;;;;;5035560;28;20173;-73
2023/10/30 05:45:56;;;;;;;5.38;2.08;;;32.90;1.00;;;;;;5035499;28;20211;-73
2023/10/30 05:48:23;;;;;;;9.93;2.35;;;32.80;1.00;;;;;;5035566;28;20185;-73
2023/10/30 05:50:50;;;;;;;2.58;2.10;;;32.80;1.00;;;;;;5035239;28;20229;-74
2023/10/30 05:53:18;;;;;;;8.88;2.60;;;32.70;1.00;;;;;;5035616;28;20178;-73
2023/10/30 05:55:45;;;;;;;7.72;2.53;;;32.70;1.00;;;;;;5035295;28;20177;-72
2023/10/30 05:58:13;;;;;;;6.25;2.25;;;32.70;1.00;;;;;;5035362;28;20173;-73
2023/10/30 06:00:40;;;;;;;3.95;2.20;;;32.70;1.00;;;;;;5035227;28;20681;-74
2023/10/30 06:03:13;;;;;;;2.97;2.20;;;32.80;1.00;;;;;;5035481;28;20192;-72
2023/10/30 06:05:40;;;;;;;6.45;2.45;;;32.70;1.00;;;;;;5035600;28;20209;-72
2023/10/30 06:08:08;;;;;;;6.53;2.80;;;32.70;1.00;;;;;;5035050;28;20277;-73
2023/10/30 06:10:37;;;;;;;5.43;2.65;;;32.70;1.00;;;;;;5035061;28;20177;-71
2023/10/30 06:13:06;;;;;;;2.00;1.85;;;32.70;1.00;;;;;;5035116;28;20184;-72
2023/10/30 06:15:34;;;;;;;8.32;3.17;;;32.70;1.00;;;;;;5033841;28;20172;-73
2023/10/30 06:18:03;;;;;;;4.82;2.50;;;32.70;1.00;;;;;;5035195;28;20181;-74
2023/10/30 06:20:31;;;;;;;6.30;2.83;;;32.70;1.00;;;;;;5034839;28;20181;-73
2023/10/30 06:22:59;;;;;;;5.10;2.65;;;32.60;1.00;;;;;;5034751;28;20185;-72
2023/10/30 06:25:27;;;;;;;4.38;2.72;;;32.50;1.00;;;;;;5034674;28;20295;-72
2023/10/30 06:27:55;;;;;;;9.27;2.63;;;32.50;1.00;;;;;;5034707;28;20681;-72
2023/10/30 06:30:23;;;;;;;14.20;3.38;;;32.50;1.00;;;;;;5034734;28;20619;-71
2023/10/30 06:32:50;;;;;;;10.88;3.47;;;32.50;1.00;;;;;;5034732;28;20181;-73
2023/10/30 06:35:17;;;;;;;6.32;3.28;;;32.40;1.00;;;;;;5034727;28;20181;-71
2023/10/30 06:37:44;;;;;;;5.05;2.85;;;32.30;1.00;;;;;;5034965;28;20185;-72
2023/10/30 06:40:12;;;;;;;8.60;2.63;;;32.30;1.00;;;;;;5034424;28;20656;-73
2023/10/30 06:42:39;;;;;;;9.02;2.92;;;32.30;1.00;;;;;;5034744;28;20181;-72
2023/10/30 06:45:07;;;;;;;5.72;3.08;;;32.10;1.00;;;;;;5034414;28;20221;-74
2023/10/30 06:47:35;;;;;;;8.30;3.63;;;32.30;1.00;;;;;;5034278;28;20179;-73
2023/10/30 06:50:02;;;;;;;15.82;3.80;;;32.30;1.00;;;;;;5032482;28;20228;-73
2023/10/30 06:52:29;;;;;;;5.55;2.92;;;32.20;1.00;;;;;;5033741;28;20181;-72
2023/10/30 06:54:57;;;;;;;10.38;3.35;;;32.20;1.00;;;;;;5033449;28;20188;-73
2023/10/30 06:57:24;;;;;;;5.00;2.70;;;32.20;1.00;;;;;;5033332;28;20192;-74
2023/10/30 06:59:54;;;;;;;8.00;3.25;;;32.20;1.00;;;;;;5033468;28;20188;-73
2023/10/30 07:05:43;;;;;;;16.40;3.57;;;32.10;1.00;;;;;;5032799;28;20282;-72
2023/10/30 07:08:10;;;;;;;8.93;3.40;;;32.20;1.00;;;;;;5033174;28;20268;-71
2023/10/30 07:10:38;;;;;;;12.20;3.33;;;32.30;1.00;;;;;;5033189;28;20180;-73
2023/10/30 07:13:05;;;;;;;10.88;2.75;;;32.50;1.00;;;;;;5031804;28;20184;-72
2023/10/30 07:15:32;;;;;;;5.40;3.10;;;32.40;1.00;;;;;;5033096;28;20185;-73
2023/10/30 07:17:59;;;;;;;7.60;3.30;;;32.50;1.00;;;;;;5031687;28;20192;-73
2023/10/30 07:20:27;;;;;;;6.57;3.05;;;32.40;1.00;;;;;;5032988;28;20203;-72
2023/10/30 07:22:54;;;;;;;11.73;2.90;;;32.30;1.00;;;;;;5033009;28;20177;-73
2023/10/30 07:25:21;;;;;;;6.57;2.60;;;32.10;1.00;;;;;;5033367;28;20244;-73
2023/10/30 07:27:49;;;;;;;6.85;3.10;;;32.00;1.00;;;;;;5032638;28;20181;-74
2023/10/30 07:30:16;;;;;;;7.17;2.50;;;31.90;1.00;;;;;;5032918;28;20223;-72
2023/10/30 07:32:44;;;;;;;8.40;2.70;;;32.10;1.00;;;;;;5032953;28;20173;-73
2023/10/30 07:35:12;;;;;;;5.82;2.70;;;32.10;1.00;;;;;;5033169;28;20584;-74
2023/10/30 07:37:39;;;;;;;8.00;2.33;;;32.20;1.00;;;;;;5032865;28;20646;-73
2023/10/30 07:40:07;;;;;;;8.35;2.72;;;32.10;1.00;;;;;;5032819;28;20185;-72
2023/10/30 07:42:34;;;;;;;6.88;2.55;;;31.90;1.00;;;;;;5032992;28;20176;-74
2023/10/30 07:45:02;;;;;;;6.20;2.33;;;31.70;1.00;;;;;;5033006;28;20667;-74
2023/10/30 07:50:51;;;;;;;10.63;2.70;;;31.30;1.00;;;;;;4920698;28;3204677;-73
2023/10/30 07:53:19;;;;;;;7.60;2.30;;;31.10;1.00;;;;;;5033563;28;20265;-74
2023/10/30 07:55:50;;;;;;;9.30;2.30;;;31.00;1.00;;;;;;5033441;28;20185;-72
2023/10/30 07:58:18;;;;;;;8.50;2.43;;;30.90;1.00;;;;;;5033863;28;20531;-73
2023/10/30 08:00:45;;;;;;;3.83;2.30;;;30.80;1.00;;;;;;5033228;28;20173;-73
2023/10/30 08:03:14;;;;;;;7.33;2.67;;;30.50;1.00;;;;;;5033420;28;20239;-71
2023/10/30 08:05:44;;;;;;;6.80;2.27;;;30.40;1.00;;;;;;5033616;28;20266;-73
2023/10/30 08:08:11;;;;;;;6.53;2.57;;;30.20;1.00;;;;;;5033672;28;20169;-75
2023/10/30 08:10:38;;;;;;;6.73;2.30;;;30.10;1.00;;;;;;5033099;28;20182;-73
2023/10/30 08:13:06;;;;;;;6.17;2.30;;;30.10;1.00;;;;;;5033630;28;20253;-73
2023/10/30 08:15:33;;;;;;;6.03;2.53;;;30.00;1.00;;;;;;5033390;28;20177;-73
2023/10/30 08:18:03;;;;;;;5.80;2.30;;;29.90;1.00;;;;;;5033399;28;20269;-75
2023/10/30 08:20:30;;;;;;;5.07;2.13;;;29.80;1.00;;;;;;5033265;28;20185;-75
2023/10/30 08:22:57;;;;;;;6.87;2.20;;;29.70;1.00;;;;;;5033312;28;20276;-72
2023/10/30 08:25:25;;;;;;;5.10;2.10;;;29.50;1.00;;;;;;5033576;28;20201;-73
2023/10/30 08:27:53;;;;;;;11.60;2.77;;;29.50;1.00;;;;;;5033101;28;20180;-73
2023/10/30 08:30:20;;;;;;;6.27;2.50;;;29.50;1.00;;;;;;5033022;28;20201;-74
2023/10/30 08:32:48;;;;;;;9.03;2.77;;;29.40;1.00;;;;;;5033303;28;20598;-74
2023/10/30 08:35:15;;;;;;;3.10;2.20;;;29.20;1.00;;;;;;5033061;28;20540;-76
2023/10/30 08:37:43;;;;;;;4.23;2.23;;;29.00;1.00;;;;;;5031694;28;20557;-72
2023/10/30 08:40:11;;;;;;;5.33;2.40;;;28.90;1.00;;;;;;5036087;28;20181;-74
2023/10/30 08:42:38;;;;;;;3.50;2.17;;;28.70;1.00;;;;;;5037192;28;20181;-75
2023/10/30 08:45:07;;;;;;;7.37;2.37;;;28.60;1.00;;;;;;5036932;28;20331;-73
2023/10/30 08:47:34;;;;;;;8.13;2.77;;;28.50;1.00;;;;;;5037264;28;20208;-72
2023/10/30 08:50:02;;;;;;;5.37;2.23;;;28.40;1.00;;;;;;5036938;28;20230;-73
2023/10/30 08:52:29;;;;;;;4.20;2.67;;;28.10;1.00;;;;;;5037026;28;20223;-72
2023/10/30 08:54:57;;;;;;;3.30;2.30;;;27.90;1.00;;;;;;5037057;28;20722;-74
2023/10/30 08:57:24;;;;;;;9.13;3.00;;;27.70;1.00;;;;;;5037039;28;20182;-74
2023/10/30 08:59:51;;;;;;;4.97;2.43;;;27.60;1.00;;;;;;5037003;28;20189;-73
2023/10/30 09:02:19;;;;;;;4.03;2.70;;;27.40;1.00;;;;;;5036714;28;20177;-75
2023/10/30 09:04:46;;;;;;;6.33;2.70;;;27.20;1.00;;;;;;5036850;28;20267;-73
2023/10/30 09:07:14;;;;;;;3.70;2.23;;;27.10;1.00;;;;;;5035433;28;20227;-73
2023/10/30 09:09:41;;;;;;;6.83;2.43;;;26.90;1.00;;;;;;5037013;28;20177;-75
2023/10/30 09:12:09;;;;;;;3.87;2.47;;;26.90;1.00;;;;;;5036490;28;20243;-73
2023/10/30 09:14:36;;;;;;;4.43;2.50;;;26.70;1.00;;;;;;5036547;28;20174;-75
2023/10/30 09:17:04;;;;;;;4.63;2.70;;;26.50;1.00;;;;;;5036635;28;20213;-72
2023/10/30 09:19:31;;;;;;;6.47;2.60;;;26.50;1.00;;;;;;5036522;28;20216;-73
2023/10/30 09:21:59;;;;;;;7.87;2.90;;;26.40;1.00;;;;;;5036565;28;20178;-74
2023/10/30 09:24:26;;;;;;;6.70;2.70;;;26.30;1.00;;;;;;5035062;28;20650;-70
2023/10/30 09:26:54;;;;;;;3.23;2.30;;;26.20;1.00;;;;;;5036428;28;20219;-74
2023/10/30 09:29:21;;;;;;;4.50;2.23;;;26.00;1.00;;;;;;5036411;28;20186;-75
2023/10/30 09:31:49;;;;;;;6.87;2.80;;;25.80;1.00;;;;;;5037045;28;20593;-73
2023/10/30 09:34:17;;;;;;;4.70;2.77;;;25.70;1.00;;;;;;5036435;28;20169;-75
2023/10/30 09:36:44;;;;;;;6.30;2.97;;;25.50;1.00;;;;;;5036229;28;20193;-73
2023/10/30 09:39:12;;;;;;;6.70;3.10;;;25.40;1.00;;;;;;5036225;28;20587;-73
2023/10/30 09:41:45;;;;;;;3.53;2.60;;;25.40;1.00;;;;;;5036194;28;20264;-73
2023/10/30 09:44:13;;;;;;;9.20;2.90;;;25.30;1.00;;;;;;5036092;28;20296;-74
2023/10/30 09:46:41;;;;;;;4.70;2.80;;;25.20;1.00;;;;;;5036149;28;20173;-74
2023/10/30 09:49:13;;;;;;;4.90;3.00;;;25.10;1.00;;;;;;5035818;28;20185;-73
2023/10/30 09:51:43;;;;;;;14.20;3.37;;;25.10;1.00;;;;;;5035467;28;20220;-73
2023/10/30 09:54:12;;;;;;;7.23;2.90;;;25.10;1.00;;;;;;5036121;28;20593;-72
2023/10/30 09:56:40;;;;;;;5.03;2.80;;;25.00;1.00;;;;;;5035958;28;20174;-74
2023/10/30 09:59:08;;;;;;;6.50;3.37;;;24.90;1.00;;;;;;5035771;28;20263;-72
2023/10/30 10:01:36;;;;;;;6.57;3.00;;;24.70;1.00;;;;;;5035593;28;20569;-72
2023/10/30 10:04:03;;;;;;;5.60;3.33;;;24.60;1.00;;;;;;5035856;28;20208;-72
2023/10/30 10:06:30;;;;;;;5.07;2.93;;;24.40;2.40;;;;;;5036048;28;20654;-74
2023/10/30 10:08:58;;;;;;;6.33;3.37;;;24.40;2.10;;;;;;5036028;28;20248;-75
2023/10/30 10:11:36;;;;;;;4.23;2.80;;;24.40;4.50;;;;;;5035544;28;20177;-75
2023/10/30 10:14:04;;;;;;;5.57;3.20;;;24.30;7.10;;;;;;5035753;28;20252;-73
2023/10/30 10:16:32;;;;;;;7.70;2.90;;;24.20;5.90;;;;;;5034305;28;20185;-74
2023/10/30 10:18:59;;;;;;;5.37;2.80;;;24.20;6.50;;;;;;5034241;28;20273;-73
2023/10/30 10:21:26;;;;;;;4.50;2.87;;;24.10;7.90;;;;;;5035351;28;20193;-74
2023/10/30 10:23:54;;;;;;;6.17;3.20;;;24.10;8.90;;;;;;5035328;28;20209;-74
2023/10/30 10:26:30;;;;;;;3.83;2.93;;;24.00;9.70;;;;;;5035356;28;20177;-74
2023/10/30 10:28:58;;;;;;;5.37;3.00;;;23.90;9.30;;;;;;5035269;28;20183;-74
2023/10/30 10:31:26;;;;;;;5.57;3.17;;;23.90;8.50;;;;;;5035133;28;20196;-74
2023/10/30 10:33:54;;;;;;;8.07;3.43;;;23.80;11.00;;;;;;5035218;28;20181;-74
2023/10/30 10:36:29;;;;;;;7.53;2.93;;;23.70;11.20;;;;;;5035238;28;20212;-74
2023/10/30 10:39:00;;;;;;;5.60;2.80;;;23.60;11.60;;;;;;5034889;28;20230;-73
2023/10/30 10:41:28;;;;;;;5.33;3.20;;;23.50;13.70;;;;;;5034665;28;20173;-73
2023/10/30 10:43:56;;;;;;;9.23;3.17;;;23.50;12.90;;;;;;5034757;28;20209;-74
2023/10/30 10:46:23;;;;;;;5.33;3.23;;;23.30;14.10;;;;;;5034463;28;20239;-73
2023/10/30 10:48:51;;;;;;;8.53;3.00;;;23.30;17.40;;;;;;5034658;28;20169;-74
2023/10/30 10:51:38;;;;;;;5.87;3.27;;;23.20;17.20;;;;;;5034001;28;20232;-73
2023/10/30 10:54:32;;;;;;;4.37;2.80;;;23.20;18.50;;;;;;5034545;28;20227;-73
2023/10/30 10:57:01;;;;;;;8.60;3.43;;;23.20;18.50;;;;;;5034467;28;20638;-74
2023/10/30 10:59:35;;;;;;;7.23;3.20;;;23.20;20.90;;;;;;5033091;28;20629;-72
2023/10/30 11:02:06;;;;;;;7.33;3.43;;;23.10;23.50;;;;;;5033691;28;20213;-72
2023/10/30 11:04:34;;;;;;;6.47;3.10;;;23.10;24.80;;;;;;5034208;28;20215;-73
2023/10/30 11:07:07;;;;;;;7.33;3.40;;;23.20;21.20;;;;;;5034154;28;20190;-73
2023/10/30 11:09:48;;;;;;;7.93;3.50;;;23.20;22.70;;;;;;5034403;28;20184;-72
2023/10/30 11:12:18;;;;;;;3.50;3.20;;;23.10;24.50;;;;;;5034219;28;20181;-73
2023/10/30 11:15:02;;;;;;;6.03;3.43;;;23.10;23.90;;;;;;5034412;28;20204;-73
2023/10/30 11:17:29;;;;;;;8.07;3.03;;;23.10;25.70;;;;;;5034135;28;20180;-71
2023/10/30 11:20:04;;;;;;;7.57;3.53;;;22.90;27.10;;;;;;5033928;28;20200;-72
2023/10/30 11:22:42;;;;;;;8.00;3.03;;;22.80;26.90;;;;;;5033852;28;20172;-72
2023/10/30 11:25:36;;;;;;;3.50;3.20;;;22.70;27.50;;;;;;5033828;28;20220;-73
2023/10/30 11:28:08;;;;;;;10.53;4.43;;;22.60;31.20;;;;;;5034477;28;20260;-72
2023/10/30 11:30:43;;;;;;;6.43;3.83;;;22.40;35.50;;;;;;5033862;28;20268;-72
2023/10/30 11:33:27;;;;;;;5.13;3.70;;;22.20;36.90;;;;;;5033900;28;20536;-72
2023/10/30 11:36:15;;;;;;;9.10;3.67;;;22.20;40.10;;;;;;5033674;28;20533;-72
2023/10/30 11:38:52;;;;;;;8.13;3.87;;;22.00;39.30;;;;;;5033694;28;20537;-72
2023/10/30 11:41:20;;;;;;;6.27;3.50;;;22.00;42.10;;;;;;5033937;28;20168;-72
2023/10/30 11:43:48;;;;;;;6.47;3.53;;;21.90;46.30;;;;;;5034032;28;20260;-72
2023/10/30 11:46:17;;;;;;;6.00;3.80;;;21.90;47.70;;;;;;5033552;28;20181;-72
2023/10/30 11:48:45;;;;;;;14.57;3.97;;;21.80;50.00;;;;;;5033408;28;20185;-73
2023/10/30 11:51:14;;;;;;;7.40;3.43;;;21.70;52.50;;;;;;5032966;28;20240;-72
2023/10/30 11:53:47;;;;;;;5.13;3.33;;;21.60;58.50;;;;;;5033308;28;20208;-72
2023/10/30 11:56:16;;;;;;;8.33;3.47;;;21.50;62.30;;;;;;5033409;28;20180;-72
2023/10/30 11:58:44;;;;;;;4.03;3.30;;;21.50;61.10;;;;;;5033454;28;20181;-72
2023/10/30 12:01:12;;;;;;;7.80;3.70;;;21.40;62.80;;;;;;5033463;28;20194;-74
2023/10/30 12:03:43;;;;;;;7.07;4.00;;;21.30;63.20;;;;;;5029866;28;20180;-72
2023/10/30 12:06:10;;;;;;;7.87;3.77;;;21.30;64.20;;;;;;5019677;28;20276;-69
2023/10/30 12:08:38;;;;;;;5.70;4.03;;;21.20;67.60;;;;;;5012902;28;20186;-70
2023/10/30 12:11:05;;;;;;;9.20;4.83;;;21.20;67.50;;;;;;5012404;28;20539;-70
2023/10/30 12:13:33;;;;;;;8.30;4.03;;;21.10;69.40;;;;;;5011895;28;20618;-70
2023/10/30 12:16:00;;;;;;;8.07;4.30;;;21.30;71.30;;;;;;5012583;28;20235;-70
2023/10/30 12:18:28;;;;;;;7.43;4.50;;;21.20;71.10;;;;;;5013124;28;20189;-70
2023/10/30 12:20:57;;;;;;;8.37;4.30;;;21.20;72.30;;;;;;5012983;28;20186;-70
2023/10/30 12:23:24;;;;;;;7.97;4.33;;;21.20;69.90;;;;;;5013166;28;20189;-70
2023/10/30 12:26:02;;;;;;;6.70;4.10;;;21.10;72.50;;;;;;5012610;28;20222;-69
2023/10/30 12:28:38;;;;;;;7.60;4.63;;;21.10;70.50;;;;;;5013151;28;20181;-69
2023/10/30 12:31:19;;;;;;;5.57;3.77;;;21.00;73.30;;;;;;5007549;28;20305;-68
2023/10/30 12:33:47;;;;;;;5.07;3.80;;;21.00;77.20;;;;;;5010308;28;20189;-69
2023/10/30 12:36:14;;;;;;;6.57;4.77;;;20.80;78.30;;;;;;5013020;28;20178;-69
2023/10/30 12:38:42;;;;;;;9.57;4.70;;;20.70;82.50;;;;;;5013157;28;20207;-70
2023/10/30 12:41:09;;;;;;;6.67;4.20;;;20.60;89.10;;;;;;5012786;28;20181;-70
2023/10/30 12:43:40;;;;;;;9.50;4.47;;;20.50;90.20;;;;;;5012661;28;20228;-69
2023/10/30 12:46:08;;;;;;;8.50;4.13;;;20.60;87.20;;;;;;5013153;28;20226;-70
2023/10/30 12:48:36;;;;;;;6.87;3.63;;;20.60;89.60;;;;;;5013243;28;20190;-69
2023/10/30 12:51:03;;;;;;;8.27;4.23;;;20.50;91.80;;;;;;5012455;28;20263;-70
2023/10/30 12:53:30;;;;;;;6.90;3.67;;;20.50;91.60;;;;;;5013000;28;20644;-70
2023/10/30 12:55:58;;;;;;;5.27;3.43;;;20.40;95.00;;;;;;5012358;28;20190;-70
2023/10/30 12:58:26;;;;;;;7.97;3.50;;;20.30;94.00;;;;;;5013036;28;20603;-70
2023/10/30 13:00:54;;;;;;;8.33;3.73;;;20.20;92.90;;;;;;5012026;28;20193;-69
2023/10/30 13:03:21;;;;;;;9.20;3.83;;;20.30;91.40;;;;;;5012663;28;20188;-70
2023/10/30 13:05:48;;;;;;;4.33;2.70;;;20.50;82.10;;;;;;5012169;28;20225;-70
2023/10/30 13:08:15;;;;;;;3.93;2.50;;;20.80;68.40;;;;;;5011011;28;20186;-70
2023/10/30 13:10:43;;;;;;;8.57;2.47;;;21.90;43.00;;;;;;5012758;28;20182;-70
2023/10/30 13:13:15;;;;;;;8.23;2.40;;;22.90;32.60;;;;;;5012826;28;20190;-69
2023/10/30 13:15:45;;;;;;;4.17;1.93;;;23.50;27.60;;;;;;5012329;28;20273;-70
2023/10/30 13:18:13;;;;;;;6.17;2.10;;;23.80;24.70;;;;;;5012208;28;20198;-70